Papere Vagabonde
Aviosuperficie Caposile LIKI



Pista 04



Pista 22

Le immagini vengono aggiornate ogni minuto
Cliccare sull'immagine per l'ingrandimento.

METAR LIPZ

2017/06/24 16:50 LIPZ
241650Z 11007KT 9000 NSC 29/23 Q1012 NOSIG

Mappa Fronti